Time;durP1;ratioP1;P1;durP2;ratioP2;P2;SDS_P1;SDS_P2;PMS_P1;PMS_P2;Temp;Humidity;BMP_temperature;BMP_pressure;BME280_temperature;BME280_humidity;BME280_pressure;Samples;Min_cycle;Max_cycle;Signal;HPM_P1;HPM_P2
2022/07/07 00:02:00;;;;;;;11.60;4.60;;;16.30;99.90;;;;;;5073028;28;20343;-42
2022/07/07 00:04:26;;;;;;;8.60;3.90;;;16.40;99.90;;;;;;5075553;28;20123;-42
2022/07/07 00:06:52;;;;;;;10.80;4.72;;;16.30;99.90;;;;;;5075201;28;21108;-48
2022/07/07 00:09:18;;;;;;;11.38;4.50;;;16.30;99.90;;;;;;5074896;28;20044;-45
2022/07/07 00:11:43;;;;;;;8.18;4.07;;;16.20;99.90;;;;;;5074694;28;20774;-47
2022/07/07 00:14:09;;;;;;;12.57;4.43;;;16.30;99.90;;;;;;5073927;28;20040;-45
2022/07/07 00:16:36;;;;;;;11.93;4.07;;;16.30;99.90;;;;;;5074090;28;20035;-45
2022/07/07 00:19:03;;;;;;;10.18;4.25;;;16.20;99.90;;;;;;5075066;28;20106;-45
2022/07/07 00:21:29;;;;;;;9.88;4.15;;;16.10;99.90;;;;;;5075270;28;20097;-46
2022/07/07 00:23:55;;;;;;;9.65;4.40;;;17.10;99.90;;;;;;5074815;28;20047;-44
2022/07/07 00:26:21;;;;;;;7.97;4.60;;;16.30;99.90;;;;;;5074863;28;20044;-46
2022/07/07 00:28:49;;;;;;;11.10;4.68;;;16.20;99.90;;;;;;5073302;28;20052;-44
2022/07/07 00:31:15;;;;;;;9.70;4.07;;;16.30;99.90;;;;;;5074757;28;20032;-48
2022/07/07 00:33:40;;;;;;;8.73;3.67;;;16.80;99.90;;;;;;5074501;28;20396;-45
2022/07/07 00:36:08;;;;;;;10.18;3.75;;;18.50;99.90;;;;;;5074171;28;20036;-46
2022/07/07 00:38:34;;;;;;;12.27;3.85;;;16.30;99.90;;;;;;5072426;28;20035;-47
2022/07/07 00:41:00;;;;;;;11.52;2.75;;;17.20;99.90;;;;;;5073897;28;20032;-49
2022/07/07 00:43:27;;;;;;;9.65;2.67;;;17.80;99.90;;;;;;5073449;28;20166;-45
2022/07/07 00:45:52;;;;;;;9.85;2.90;;;17.40;99.90;;;;;;5075214;28;20044;-44
2022/07/07 00:48:19;;;;;;;9.93;2.67;;;16.10;99.90;;;;;;5073837;28;20035;-49
2022/07/07 00:50:46;;;;;;;8.95;2.40;;;18.20;99.90;;;;;;5074605;28;20521;-47
2022/07/07 00:53:13;;;;;;;9.35;2.40;;;15.90;99.90;;;;;;5073692;28;20094;-47
2022/07/07 00:55:40;;;;;;;8.18;2.60;;;16.20;99.90;;;;;;5074617;28;20046;-49
2022/07/07 00:58:06;;;;;;;10.15;2.67;;;17.10;99.90;;;;;;5073608;28;20047;-44
2022/07/07 01:00:33;;;;;;;7.10;2.70;;;15.80;99.90;;;;;;5073705;28;20095;-49
2022/07/07 01:02:58;;;;;;;9.15;2.60;;;15.80;99.90;;;;;;5072927;28;20123;-48
2022/07/07 01:05:25;;;;;;;7.78;3.05;;;17.00;99.90;;;;;;5074264;28;20086;-47
2022/07/07 01:07:52;;;;;;;7.10;2.40;;;15.80;99.90;;;;;;5073531;28;20130;-44
2022/07/07 01:10:18;;;;;;;8.23;2.72;;;16.40;99.90;;;;;;5073554;28;20078;-45
2022/07/07 01:12:44;;;;;;;12.20;3.20;;;15.70;99.90;;;;;;5074475;28;20040;-46
2022/07/07 01:15:12;;;;;;;8.05;2.88;;;16.70;99.90;;;;;;5072955;28;20044;-46
2022/07/07 01:17:39;;;;;;;7.97;3.60;;;16.30;99.90;;;;;;5073130;28;20097;-43
2022/07/07 01:20:07;;;;;;;8.32;3.00;;;16.60;99.90;;;;;;5074077;28;20085;-47
2022/07/07 01:22:34;;;;;;;7.85;3.05;;;15.60;99.90;;;;;;5073577;28;20433;-45
2022/07/07 01:25:00;;;;;;;8.90;3.78;;;15.90;99.90;;;;;;5073956;28;20500;-48
2022/07/07 01:27:26;;;;;;;12.18;2.97;;;15.60;99.90;;;;;;5073565;28;20094;-48
2022/07/07 01:29:56;;;;;;;8.30;2.92;;;16.50;99.90;;;;;;5073135;28;20040;-49
2022/07/07 01:32:23;;;;;;;14.00;3.47;;;16.30;99.90;;;;;;5073915;28;20036;-47
2022/07/07 01:34:50;;;;;;;10.48;2.92;;;15.60;99.90;;;;;;5073853;28;20062;-47
2022/07/07 01:37:20;;;;;;;8.30;3.15;;;15.70;99.90;;;;;;5072826;28;20075;-49
2022/07/07 01:39:46;;;;;;;14.65;3.42;;;16.40;99.90;;;;;;5074653;28;20044;-48
2022/07/07 01:42:13;;;;;;;8.60;3.35;;;17.70;99.90;;;;;;5072530;28;20313;-49
2022/07/07 01:44:41;;;;;;;11.93;3.47;;;16.70;99.90;;;;;;5074185;28;20810;-47
2022/07/07 01:47:08;;;;;;;10.80;3.28;;;15.80;99.90;;;;;;5076061;28;20044;-48
2022/07/07 01:49:34;;;;;;;9.20;3.47;;;17.90;99.90;;;;;;5076810;28;20744;-48
2022/07/07 01:52:01;;;;;;;11.77;3.20;;;15.70;99.90;;;;;;5077577;28;20040;-46
2022/07/07 01:54:28;;;;;;;9.13;3.33;;;15.40;99.90;;;;;;5076550;28;20824;-48
2022/07/07 01:56:54;;;;;;;11.38;3.30;;;15.60;99.90;;;;;;5076568;28;20035;-48
2022/07/07 01:59:21;;;;;;;11.02;3.53;;;15.70;99.90;;;;;;5076672;28;20784;-43
2022/07/07 02:01:47;;;;;;;17.38;3.58;;;15.50;99.90;;;;;;5077932;28;20075;-44
2022/07/07 02:04:13;;;;;;;9.73;3.65;;;17.10;99.90;;;;;;5076038;28;20311;-48
2022/07/07 02:06:39;;;;;;;16.05;4.57;;;15.60;99.90;;;;;;5078154;28;20040;-47
2022/07/07 02:09:06;;;;;;;12.93;3.80;;;17.80;99.90;;;;;;5077952;28;20301;-49
2022/07/07 02:11:31;;;;;;;10.57;3.30;;;15.60;99.90;;;;;;5077373;28;20546;-46
2022/07/07 02:13:58;;;;;;;13.40;3.25;;;15.60;99.90;;;;;;5077136;28;20040;-48
2022/07/07 02:16:25;;;;;;;12.23;2.83;;;15.70;99.90;;;;;;5074561;28;20047;-46
2022/07/07 02:18:57;;;;;;;9.05;2.20;;;15.00;99.90;;;;;;5077755;28;20044;-50
2022/07/07 02:21:23;;;;;;;11.05;2.78;;;15.70;99.90;;;;;;5077814;28;20504;-48
2022/07/07 02:23:53;;;;;;;10.45;2.92;;;16.50;99.90;;;;;;5075779;28;20040;-45
2022/07/07 02:26:19;;;;;;;9.95;2.28;;;15.90;99.90;;;;;;5075991;28;20044;-50
2022/07/07 02:28:45;;;;;;;10.30;2.05;;;15.80;99.90;;;;;;5075656;28;20536;-47
2022/07/07 02:31:11;;;;;;;14.57;2.08;;;17.00;99.90;;;;;;5076234;28;20131;-50
2022/07/07 02:33:40;;;;;;;11.60;2.40;;;16.80;99.90;;;;;;5077683;28;20127;-49
2022/07/07 02:36:07;;;;;;;13.27;2.35;;;16.60;99.90;;;;;;5076257;28;20373;-49
2022/07/07 02:38:33;;;;;;;8.10;1.90;;;17.70;99.90;;;;;;5075905;28;20131;-43
2022/07/07 02:41:00;;;;;;;8.75;1.77;;;15.70;99.90;;;;;;5075159;28;20036;-47
2022/07/07 02:43:26;;;;;;;10.77;2.20;;;15.60;99.90;;;;;;5074382;28;20095;-48
2022/07/07 02:45:52;;;;;;;10.35;2.13;;;15.60;99.90;;;;;;5076130;28;20047;-45
2022/07/07 02:48:25;;;;;;;11.60;1.70;;;15.50;99.90;;;;;;5076542;28;20089;-47
2022/07/07 02:50:52;;;;;;;10.43;2.13;;;15.40;99.90;;;;;;5076551;28;20181;-48
2022/07/07 02:53:19;;;;;;;13.05;2.42;;;17.60;99.90;;;;;;5075699;28;20055;-43
2022/07/07 02:55:45;;;;;;;10.98;2.25;;;15.50;99.90;;;;;;5076213;28;20048;-48
2022/07/07 02:58:19;;;;;;;12.63;2.10;;;15.60;99.90;;;;;;5074142;28;20048;-47
2022/07/07 03:00:48;;;;;;;10.55;1.83;;;16.60;99.90;;;;;;5075625;28;20043;-47
2022/07/07 03:03:16;;;;;;;8.73;2.40;;;15.70;99.90;;;;;;5076678;28;20028;-45
2022/07/07 03:05:42;;;;;;;10.98;2.55;;;15.40;99.90;;;;;;5074641;28;20051;-47
2022/07/07 03:08:07;;;;;;;6.93;2.50;;;16.40;99.90;;;;;;5075997;28;20040;-46
2022/07/07 03:10:33;;;;;;;10.27;2.70;;;15.50;99.90;;;;;;5075866;28;20056;-46
2022/07/07 03:12:59;;;;;;;8.95;2.10;;;15.70;99.90;;;;;;5074478;28;20067;-47
2022/07/07 03:15:25;;;;;;;14.20;2.50;;;15.40;99.90;;;;;;5076709;28;20036;-46
2022/07/07 03:17:52;;;;;;;13.50;2.20;;;15.40;99.90;;;;;;5075201;28;20135;-46
2022/07/07 03:20:18;;;;;;;14.90;2.97;;;17.40;99.90;;;;;;5076303;28;20398;-46
2022/07/07 03:22:44;;;;;;;9.57;2.20;;;15.60;99.90;;;;;;5072233;28;21127;-48
2022/07/07 03:25:12;;;;;;;12.32;2.45;;;15.40;99.90;;;;;;5075353;28;20075;-43
2022/07/07 03:27:38;;;;;;;10.10;2.38;;;16.30;99.90;;;;;;5074764;28;20089;-45
2022/07/07 03:30:06;;;;;;;8.15;1.63;;;15.40;99.90;;;;;;5075146;28;20027;-47
2022/07/07 03:32:34;;;;;;;10.80;1.90;;;15.40;99.90;;;;;;5075324;28;20071;-47
2022/07/07 03:34:59;;;;;;;13.65;2.40;;;17.60;99.90;;;;;;5075199;28;20036;-43
2022/07/07 03:37:25;;;;;;;12.07;2.05;;;15.40;99.90;;;;;;5074344;28;20089;-45
2022/07/07 03:39:51;;;;;;;10.35;1.60;;;15.60;99.90;;;;;;5074521;28;20046;-47
2022/07/07 03:42:17;;;;;;;8.93;1.40;;;17.50;99.90;;;;;;5074953;28;20074;-46
2022/07/07 03:44:42;;;;;;;10.23;1.90;;;15.30;99.90;;;;;;5074801;28;20040;-45
2022/07/07 03:47:08;;;;;;;8.55;1.65;;;16.80;99.90;;;;;;5075768;28;20507;-43
2022/07/07 03:49:34;;;;;;;12.95;1.40;;;16.20;99.90;;;;;;5074766;28;20059;-43
2022/07/07 03:52:00;;;;;;;9.35;1.60;;;15.10;99.90;;;;;;5073954;28;20053;-42
2022/07/07 03:54:26;;;;;;;6.85;1.13;;;15.20;99.90;;;;;;5074649;28;20044;-44
2022/07/07 03:56:52;;;;;;;11.00;1.38;;;16.70;99.90;;;;;;5075505;28;20048;-44
2022/07/07 03:59:19;;;;;;;9.25;1.40;;;15.10;99.90;;;;;;5074519;28;20042;-46
2022/07/07 04:01:45;;;;;;;10.00;1.55;;;15.10;99.90;;;;;;5074240;28;20044;-44
2022/07/07 04:04:15;;;;;;;9.50;1.50;;;15.90;99.90;;;;;;5075152;28;20044;-48
2022/07/07 04:06:41;;;;;;;11.98;1.20;;;15.00;99.90;;;;;;5075488;28;20044;-43
2022/07/07 04:09:09;;;;;;;11.52;1.55;;;14.90;99.90;;;;;;5074287;28;20420;-45
2022/07/07 04:11:35;;;;;;;13.48;1.58;;;14.80;99.90;;;;;;5072743;28;20437;-45
2022/07/07 04:14:01;;;;;;;8.38;1.38;;;16.20;99.90;;;;;;5074507;28;20065;-46
2022/07/07 04:16:29;;;;;;;13.00;1.77;;;15.00;99.90;;;;;;5073858;28;20044;-45
2022/07/07 04:18:58;;;;;;;10.25;1.98;;;15.00;99.90;;;;;;5073857;28;20555;-46
2022/07/07 04:21:24;;;;;;;9.63;2.33;;;14.90;99.90;;;;;;5075765;28;20040;-43
2022/07/07 04:23:51;;;;;;;8.20;1.48;;;15.70;99.90;;;;;;5074314;28;20036;-44
2022/07/07 04:26:17;;;;;;;10.55;1.50;;;15.20;99.90;;;;;;5074789;28;20047;-41
2022/07/07 04:28:43;;;;;;;11.00;2.28;;;15.10;99.90;;;;;;5073805;28;20044;-45
2022/07/07 04:31:08;;;;;;;12.88;1.67;;;15.00;99.90;;;;;;5075604;28;20120;-43
2022/07/07 04:33:36;;;;;;;9.45;1.50;;;15.00;99.90;;;;;;5074112;28;20085;-44
2022/07/07 04:36:02;;;;;;;8.07;1.48;;;15.10;99.90;;;;;;5074157;28;20096;-46
2022/07/07 04:38:28;;;;;;;12.25;1.70;;;14.90;99.90;;;;;;5074301;28;20490;-47
2022/07/07 04:40:53;;;;;;;11.18;1.52;;;15.10;99.90;;;;;;5072238;28;20073;-43
2022/07/07 04:43:19;;;;;;;9.73;1.60;;;15.00;99.90;;;;;;5073136;28;20184;-43
2022/07/07 04:45:45;;;;;;;13.52;1.52;;;15.80;99.90;;;;;;5073232;28;20040;-43
2022/07/07 04:48:10;;;;;;;8.13;1.50;;;15.20;99.90;;;;;;5072771;28;20044;-43
2022/07/07 04:50:36;;;;;;;9.05;1.27;;;15.10;99.90;;;;;;5073803;28;20040;-48
2022/07/07 04:53:03;;;;;;;7.95;1.70;;;15.10;99.90;;;;;;5073012;28;20083;-46
2022/07/07 04:55:30;;;;;;;8.55;1.35;;;15.00;99.90;;;;;;5073772;28;20115;-48
2022/07/07 04:57:57;;;;;;;11.95;1.85;;;14.90;99.90;;;;;;5072308;28;20044;-47
2022/07/07 05:00:22;;;;;;;8.43;2.50;;;15.10;99.90;;;;;;5071692;28;20036;-47
2022/07/07 05:02:48;;;;;;;8.52;1.58;;;15.20;99.90;;;;;;5072289;28;20497;-44
2022/07/07 05:05:14;;;;;;;12.80;2.13;;;15.20;99.90;;;;;;5074090;28;20676;-45
2022/07/07 05:07:39;;;;;;;12.60;1.88;;;15.40;99.90;;;;;;5072575;28;20838;-46
2022/07/07 05:10:08;;;;;;;11.38;1.52;;;14.90;99.90;;;;;;5072152;28;20050;-47
2022/07/07 05:12:33;;;;;;;9.75;1.67;;;15.00;99.90;;;;;;5071960;28;20035;-47
2022/07/07 05:14:59;;;;;;;10.43;1.52;;;15.00;99.90;;;;;;5072407;28;20109;-47
2022/07/07 05:17:26;;;;;;;12.25;1.58;;;16.40;99.90;;;;;;5072594;28;20135;-48
2022/07/07 05:19:52;;;;;;;11.07;1.77;;;14.90;99.90;;;;;;5073893;28;20043;-43
2022/07/07 05:22:18;;;;;;;10.65;1.52;;;14.90;99.90;;;;;;5075758;28;20097;-46
2022/07/07 05:24:43;;;;;;;11.50;2.00;;;14.90;99.90;;;;;;5075952;28;20522;-46
2022/07/07 05:27:09;;;;;;;7.55;2.03;;;15.90;99.90;;;;;;5073519;28;20532;-47
2022/07/07 05:29:35;;;;;;;11.77;1.92;;;15.30;99.90;;;;;;5076086;28;20032;-44
2022/07/07 05:32:01;;;;;;;10.85;2.17;;;15.10;99.90;;;;;;5076657;28;20032;-47
2022/07/07 05:34:26;;;;;;;13.60;2.13;;;14.90;99.90;;;;;;5074789;28;20299;-46
2022/07/07 05:36:52;;;;;;;7.55;1.98;;;17.00;99.90;;;;;;5077703;28;20032;-41
2022/07/07 05:39:18;;;;;;;11.13;2.10;;;15.50;99.90;;;;;;5076296;28;20036;-46
2022/07/07 05:41:43;;;;;;;9.60;1.95;;;16.20;99.90;;;;;;5076877;28;20055;-46
2022/07/07 05:44:09;;;;;;;14.50;2.30;;;14.90;99.90;;;;;;5076175;28;20064;-47
2022/07/07 05:46:35;;;;;;;10.23;1.92;;;15.00;99.90;;;;;;5076891;28;20047;-45
2022/07/07 05:49:01;;;;;;;8.60;2.22;;;15.80;99.90;;;;;;5076227;28;20081;-44
2022/07/07 05:51:27;;;;;;;11.57;1.42;;;15.40;99.90;;;;;;5077400;28;20055;-45
2022/07/07 05:53:54;;;;;;;13.98;1.83;;;15.60;99.90;;;;;;5076866;28;20071;-47
2022/07/07 05:56:20;;;;;;;11.18;1.98;;;16.20;99.90;;;;;;5075343;28;20059;-45
2022/07/07 05:58:45;;;;;;;13.70;1.60;;;16.50;99.90;;;;;;5076055;28;20044;-47
2022/07/07 06:01:13;;;;;;;8.95;1.40;;;15.60;99.90;;;;;;5076441;28;20035;-45
2022/07/07 06:03:39;;;;;;;7.88;1.60;;;15.80;99.90;;;;;;5075714;28;20977;-45
2022/07/07 06:06:05;;;;;;;6.15;1.67;;;17.40;99.90;;;;;;5077129;28;20035;-51
2022/07/07 06:08:32;;;;;;;9.40;1.85;;;15.80;99.90;;;;;;5075809;28;20043;-44
2022/07/07 06:10:58;;;;;;;9.18;1.45;;;18.10;99.90;;;;;;5075980;28;20054;-47
2022/07/07 06:13:24;;;;;;;7.28;1.15;;;16.00;99.90;;;;;;5076245;28;20043;-47
2022/07/07 06:15:53;;;;;;;11.20;1.92;;;15.60;99.90;;;;;;5076728;28;20047;-46
2022/07/07 06:18:18;;;;;;;8.05;1.42;;;17.50;99.90;;;;;;5076810;28;20076;-47
2022/07/07 06:20:44;;;;;;;7.07;1.52;;;15.40;99.90;;;;;;5075757;28;20193;-45
2022/07/07 06:23:10;;;;;;;7.80;1.85;;;15.40;99.90;;;;;;5075952;28;20152;-46
2022/07/07 06:25:36;;;;;;;12.85;1.20;;;17.00;99.90;;;;;;5076517;28;20047;-47
2022/07/07 06:28:03;;;;;;;5.85;0.93;;;15.30;99.90;;;;;;5076711;28;20036;-46
2022/07/07 06:30:31;;;;;;;7.68;1.35;;;15.60;99.90;;;;;;5075774;28;20040;-43
2022/07/07 06:32:56;;;;;;;6.45;0.93;;;17.70;99.90;;;;;;5073449;28;20032;-46
2022/07/07 06:35:24;;;;;;;5.50;1.13;;;15.80;99.90;;;;;;5076768;28;20746;-46
2022/07/07 06:37:52;;;;;;;6.45;1.02;;;18.00;99.90;;;;;;5077151;28;20044;-43
2022/07/07 06:40:18;;;;;;;9.43;1.20;;;16.90;99.90;;;;;;5074705;28;20042;-42
2022/07/07 06:42:44;;;;;;;5.88;1.50;;;16.30;99.90;;;;;;5074738;28;20127;-47
2022/07/07 06:45:12;;;;;;;7.45;1.17;;;16.20;99.90;;;;;;5075826;28;20036;-42
2022/07/07 06:47:37;;;;;;;6.20;1.30;;;16.30;99.90;;;;;;5075224;28;20039;-47
2022/07/07 06:50:04;;;;;;;6.75;1.60;;;17.20;99.90;;;;;;5076316;28;20036;-43
2022/07/07 06:52:31;;;;;;;6.22;1.27;;;16.20;99.90;;;;;;5075484;28;20091;-48
2022/07/07 06:54:57;;;;;;;4.00;0.77;;;16.00;99.90;;;;;;5075271;28;20516;-46
2022/07/07 06:57:23;;;;;;;5.13;1.00;;;16.00;99.90;;;;;;5075130;28;20047;-43
2022/07/07 06:59:50;;;;;;;6.15;0.90;;;17.20;99.90;;;;;;5075933;28;20074;-45
2022/07/07 07:02:16;;;;;;;6.00;0.88;;;17.80;99.90;;;;;;5073098;28;20138;-43
2022/07/07 07:04:42;;;;;;;6.28;1.25;;;16.00;99.90;;;;;;5075460;28;20135;-44
2022/07/07 07:07:09;;;;;;;6.88;0.95;;;16.10;99.90;;;;;;5074818;28;20086;-42
2022/07/07 07:09:35;;;;;;;5.10;0.90;;;16.00;99.90;;;;;;5074757;28;20059;-43
2022/07/07 07:12:01;;;;;;;4.32;0.90;;;16.00;99.90;;;;;;5074643;28;20032;-43
2022/07/07 07:14:26;;;;;;;6.53;1.10;;;16.60;99.90;;;;;;5074607;28;20323;-42
2022/07/07 07:16:52;;;;;;;8.38;1.10;;;16.40;99.90;;;;;;5075246;28;20043;-41
2022/07/07 07:19:18;;;;;;;7.85;1.20;;;16.30;99.90;;;;;;5072435;28;20052;-42
2022/07/07 07:21:43;;;;;;;8.70;1.10;;;16.30;99.90;;;;;;5075323;28;20051;-46
2022/07/07 07:24:09;;;;;;;6.25;1.10;;;17.70;99.90;;;;;;5075345;28;20306;-45
2022/07/07 07:26:35;;;;;;;5.15;1.00;;;16.40;99.90;;;;;;5074893;28;20091;-46
2022/07/07 07:29:00;;;;;;;8.13;1.42;;;16.20;99.90;;;;;;5072844;28;20123;-45
2022/07/07 07:31:26;;;;;;;6.10;1.23;;;16.10;99.90;;;;;;5073759;28;20071;-46
2022/07/07 07:33:52;;;;;;;6.88;1.10;;;17.10;99.90;;;;;;5073835;28;20127;-49
2022/07/07 07:36:17;;;;;;;4.97;1.35;;;19.20;99.90;;;;;;5072674;28;20036;-47
2022/07/07 07:38:44;;;;;;;7.68;1.20;;;19.30;99.90;;;;;;5073248;28;20040;-45
2022/07/07 07:41:11;;;;;;;4.70;1.17;;;18.50;99.90;;;;;;5073459;28;20040;-43
2022/07/07 07:43:38;;;;;;;8.75;1.42;;;18.00;99.90;;;;;;5072009;28;20097;-45
2022/07/07 07:46:06;;;;;;;5.32;1.20;;;17.60;99.90;;;;;;5075131;28;20067;-47
2022/07/07 07:48:31;;;;;;;9.20;1.33;;;17.40;99.90;;;;;;5074072;28;20040;-46
2022/07/07 07:50:58;;;;;;;6.82;0.95;;;17.40;99.90;;;;;;5074742;28;20089;-47
2022/07/07 07:53:25;;;;;;;3.72;0.80;;;17.20;99.90;;;;;;5074519;28;20126;-46
2022/07/07 07:55:53;;;;;;;4.40;1.00;;;17.20;99.90;;;;;;5073300;28;20052;-45
2022/07/07 07:58:19;;;;;;;3.78;0.80;;;17.40;99.90;;;;;;5074424;28;20044;-46
2022/07/07 08:00:46;;;;;;;6.20;0.90;;;17.10;99.90;;;;;;5073873;28;20044;-46
2022/07/07 08:03:12;;;;;;;7.80;0.98;;;19.60;99.90;;;;;;5073633;28;20390;-45
2022/07/07 08:05:37;;;;;;;5.80;1.15;;;18.30;99.90;;;;;;5072252;28;20055;-46
2022/07/07 08:08:05;;;;;;;6.07;1.05;;;17.30;99.90;;;;;;5074470;28;20493;-43
2022/07/07 08:10:32;;;;;;;5.57;1.00;;;17.40;99.90;;;;;;5073520;28;20039;-47
2022/07/07 08:12:57;;;;;;;5.95;1.10;;;18.40;99.90;;;;;;5073170;28;20122;-44
2022/07/07 08:15:25;;;;;;;8.80;1.38;;;18.80;99.90;;;;;;5073255;28;20040;-46
2022/07/07 08:17:52;;;;;;;7.85;1.30;;;18.70;99.90;;;;;;5074455;28;20051;-46
2022/07/07 08:20:17;;;;;;;7.82;1.13;;;18.70;99.90;;;;;;5073370;28;20036;-48
2022/07/07 08:22:43;;;;;;;9.38;1.92;;;18.60;99.90;;;;;;5075865;28;20424;-46
2022/07/07 08:25:09;;;;;;;7.45;1.48;;;18.40;99.90;;;;;;5073371;28;20501;-47
2022/07/07 08:27:35;;;;;;;11.15;1.70;;;18.20;99.90;;;;;;5074064;28;20040;-46
2022/07/07 08:30:05;;;;;;;10.32;1.80;;;17.90;99.90;;;;;;5074037;28;20027;-42
2022/07/07 08:32:31;;;;;;;10.98;2.30;;;17.90;99.90;;;;;;5073468;28;20485;-43
2022/07/07 08:34:56;;;;;;;4.43;1.30;;;18.10;99.90;;;;;;5073410;28;20036;-46
2022/07/07 08:37:24;;;;;;;5.03;1.38;;;17.90;99.90;;;;;;5073998;28;20572;-45
2022/07/07 08:39:50;;;;;;;6.53;1.45;;;17.90;99.90;;;;;;5074545;28;20067;-47
2022/07/07 08:42:16;;;;;;;9.32;1.67;;;17.70;99.90;;;;;;5074096;28;20481;-42
2022/07/07 08:44:42;;;;;;;7.32;1.52;;;17.50;99.90;;;;;;5072083;28;20040;-42
2022/07/07 08:47:08;;;;;;;12.00;1.90;;;18.10;99.90;;;;;;5072614;28;20084;-45
2022/07/07 08:49:34;;;;;;;9.75;2.40;;;19.80;99.90;;;;;;5074128;28;20067;-46
2022/07/07 08:52:00;;;;;;;9.75;2.08;;;19.70;99.90;;;;;;5073747;28;20047;-47
2022/07/07 08:54:26;;;;;;;7.72;1.73;;;20.10;99.90;;;;;;5074392;28;20439;-42
2022/07/07 08:56:53;;;;;;;9.95;1.95;;;19.80;99.90;;;;;;5077882;28;20097;-46
2022/07/07 08:59:19;;;;;;;9.05;2.03;;;19.30;99.90;;;;;;5077440;28;20044;-43
2022/07/07 09:01:59;;;;;;;8.70;1.77;;;19.80;99.90;;;;;;5077043;28;20047;-48
2022/07/07 09:04:29;;;;;;;9.77;2.15;;;18.40;99.90;;;;;;5077344;28;20044;-46
2022/07/07 09:07:04;;;;;;;11.05;2.33;;;17.90;99.90;;;;;;5077902;28;20054;-47
2022/07/07 09:09:36;;;;;;;13.90;2.65;;;17.90;99.90;;;;;;5075885;28;20301;-48
2022/07/07 09:12:05;;;;;;;;;;;17.80;99.90;;;;;;5078617;28;20131;-43
2022/07/07 09:14:36;;;;;;;8.52;1.80;;;17.60;99.90;;;;;;5076460;28;20066;-44
2022/07/07 09:17:03;;;;;;;9.73;1.80;;;17.10;99.90;;;;;;5074634;28;20750;-47
2022/07/07 09:19:28;;;;;;;10.75;1.70;;;17.30;99.90;;;;;;5076621;28;20524;-45
2022/07/07 09:21:54;;;;;;;10.52;2.15;;;17.80;99.90;;;;;;5078617;28;20090;-46
2022/07/07 09:24:22;;;;;;;8.18;1.70;;;17.30;99.90;;;;;;5076909;28;20032;-44
2022/07/07 09:26:52;;;;;;;9.68;1.40;;;17.40;99.90;;;;;;5077441;28;20473;-45
2022/07/07 09:29:19;;;;;;;5.30;1.30;;;17.40;99.90;;;;;;5077358;28;20047;-47
2022/07/07 09:31:58;;;;;;;8.85;1.83;;;18.10;99.90;;;;;;5077188;28;20089;-46
2022/07/07 09:34:44;;;;;;;7.80;1.40;;;18.20;99.90;;;;;;5076155;28;20063;-48
2022/07/07 09:39:56;;;;;;;6.38;1.10;;;17.70;99.90;;;;;;5077297;28;20349;-47
2022/07/07 09:42:32;;;;;;;6.88;1.45;;;17.30;99.90;;;;;;5076293;28;20729;-45
2022/07/07 09:45:01;;;;;;;10.65;2.03;;;17.20;99.90;;;;;;5077538;28;20773;-46
2022/07/07 09:47:28;;;;;;;8.23;1.33;;;17.70;99.90;;;;;;5076586;28;20051;-46
2022/07/07 09:50:04;;;;;;;11.38;1.92;;;18.10;99.90;;;;;;5075743;28;20622;-48
2022/07/07 09:52:32;;;;;;;8.05;1.40;;;17.20;99.90;;;;;;5077009;28;20060;-48
2022/07/07 09:55:01;;;;;;;9.52;1.60;;;17.10;99.90;;;;;;5074950;28;20036;-48
2022/07/07 09:57:27;;;;;;;10.48;1.70;;;17.10;99.90;;;;;;5074456;28;20083;-48
2022/07/07 09:59:54;;;;;;;11.70;1.88;;;16.90;99.90;;;;;;5077216;28;20357;-47
2022/07/07 10:02:29;;;;;;;11.18;1.60;;;17.10;99.90;;;;;;5076473;28;20335;-47
2022/07/07 10:05:00;;;;;;;8.02;1.52;;;17.40;99.90;;;;;;5075097;28;20048;-47
2022/07/07 10:07:32;;;;;;;9.18;1.80;;;17.20;99.90;;;;;;5075437;28;20040;-43
2022/07/07 10:10:00;;;;;;;;;;;18.00;99.90;;;;;;5077557;28;20211;-44
2022/07/07 10:12:28;;;;;;;9.00;1.98;;;18.00;99.90;;;;;;5076948;28;19923;-43
2022/07/07 10:15:04;;;;;;;10.82;2.10;;;16.90;99.90;;;;;;5076673;28;20040;-46
2022/07/07 10:17:30;;;;;;;12.45;1.92;;;17.00;99.90;;;;;;5076973;28;20062;-42
2022/07/07 10:19:57;;;;;;;9.32;1.30;;;16.80;99.90;;;;;;5076539;28;20123;-43
2022/07/07 10:22:27;;;;;;;10.25;1.55;;;16.60;99.90;;;;;;5076000;28;20073;-46
2022/07/07 10:24:58;;;;;;;8.95;1.60;;;16.40;99.90;;;;;;5073385;28;20039;-45
2022/07/07 10:27:26;;;;;;;10.47;1.53;;;16.30;99.90;;;;;;5075009;28;20121;-46
2022/07/07 10:29:58;;;;;;;10.10;2.05;;;18.40;99.90;;;;;;5074465;28;20047;-43
2022/07/07 10:32:37;;;;;;;9.52;1.50;;;16.40;99.90;;;;;;5076228;28;20063;-44
2022/07/07 10:35:12;;;;;;;20.25;2.67;;;16.40;99.90;;;;;;5075809;28;20082;-46
2022/07/07 10:37:52;;;;;;;12.25;1.85;;;16.60;99.90;;;;;;5075648;28;20028;-45
2022/07/07 10:40:21;;;;;;;15.43;1.92;;;16.60;99.90;;;;;;5074595;28;20255;-46
2022/07/07 10:42:59;;;;;;;10.75;1.33;;;16.50;99.90;;;;;;5076089;28;20509;-42
2022/07/07 10:45:26;;;;;;;8.13;2.05;;;17.70;99.90;;;;;;5074459;28;20063;-43
2022/07/07 10:47:52;;;;;;;14.05;2.33;;;18.20;99.90;;;;;;5075062;28;20085;-43
2022/07/07 10:50:38;;;;;;;12.45;2.33;;;17.00;98.90;;;;;;5075335;28;20044;-41
2022/07/07 10:53:30;;;;;;;18.02;2.40;;;18.30;97.50;;;;;;5077007;28;20044;-46
2022/07/07 10:55:57;;;;;;;14.48;2.78;;;16.90;97.90;;;;;;5075252;28;20036;-43
2022/07/07 10:58:56;;;;;;;12.50;2.95;;;18.90;99.90;;;;;;5075744;28;20036;-46
2022/07/07 11:01:24;;;;;;;18.60;3.03;;;16.50;99.90;;;;;;4991986;28;20108;-43
2022/07/07 11:03:50;;;;;;;21.23;3.15;;;17.60;99.90;;;;;;4991875;28;20125;-43
2022/07/07 11:06:18;;;;;;;20.02;2.88;;;16.40;99.90;;;;;;4992412;28;20123;-43
2022/07/07 11:08:58;;;;;;;19.92;2.97;;;17.20;97.00;;;;;;4992481;28;20365;-47
2022/07/07 11:11:24;;;;;;;14.85;2.45;;;18.80;97.80;;;;;;4991777;28;20148;-42
2022/07/07 11:14:09;;;;;;;16.63;2.97;;;16.50;97.00;;;;;;4992286;28;20406;-42
2022/07/07 11:16:36;;;;;;;17.85;2.67;;;16.30;97.90;;;;;;4992794;28;20100;-46
2022/07/07 11:19:04;;;;;;;17.42;2.72;;;16.50;98.90;;;;;;4992644;28;20460;-44
2022/07/07 11:21:49;;;;;;;14.90;2.75;;;16.60;98.60;;;;;;4992073;28;20844;-47
2022/07/07 11:24:16;;;;;;;16.27;2.90;;;16.50;82.50;;;;;;4993429;28;20136;-43
2022/07/07 11:26:42;;;;;;;13.48;2.42;;;16.70;90.80;;;;;;4992208;28;20080;-43
2022/07/07 11:29:11;;;;;;;12.02;2.53;;;16.80;90.40;;;;;;4993486;28;20129;-45
2022/07/07 11:31:36;;;;;;;16.63;2.88;;;16.80;90.80;;;;;;4992805;28;20108;-47
2022/07/07 11:34:02;;;;;;;14.43;2.10;;;16.80;86.00;;;;;;4991690;28;20463;-47
2022/07/07 11:36:30;;;;;;;12.32;2.92;;;18.00;84.80;;;;;;4992007;28;20038;-43
2022/07/07 11:39:05;;;;;;;12.85;3.17;;;16.80;72.90;;;;;;5073750;28;20040;-45
2022/07/07 11:41:43;;;;;;;18.52;2.70;;;17.70;82.40;;;;;;5073924;28;20044;-45
2022/07/07 11:44:28;;;;;;;16.35;2.55;;;17.00;89.20;;;;;;5074142;28;20082;-45
2022/07/07 11:46:55;;;;;;;14.35;2.25;;;16.70;90.70;;;;;;5070966;28;20040;-44
2022/07/07 11:49:21;;;;;;;18.88;2.90;;;16.70;92.20;;;;;;5073934;28;20543;-44
2022/07/07 11:51:48;;;;;;;16.13;2.90;;;16.50;91.20;;;;;;5075502;28;20063;-46
2022/07/07 11:54:16;;;;;;;19.52;2.70;;;16.60;92.70;;;;;;5073790;28;20040;-42
2022/07/07 11:56:42;;;;;;;14.27;3.08;;;16.40;97.30;;;;;;5073822;28;20119;-46
2022/07/07 11:59:08;;;;;;;18.55;2.70;;;16.40;98.70;;;;;;5074238;28;20054;-46
2022/07/07 12:01:37;;;;;;;18.88;3.00;;;16.50;99.90;;;;;;5074751;28;20459;-43
2022/07/07 12:04:14;;;;;;;16.00;2.50;;;17.30;99.90;;;;;;5074114;28;20047;-48
2022/07/07 12:06:39;;;;;;;9.35;2.15;;;16.70;99.20;;;;;;5073687;28;20089;-43
2022/07/07 12:09:05;;;;;;;17.98;3.30;;;16.80;98.00;;;;;;5074454;28;20043;-46
2022/07/07 12:11:31;;;;;;;25.70;7.32;;;16.80;98.00;;;;;;5073185;28;20498;-42
2022/07/07 12:13:57;;;;;;;15.25;3.10;;;17.10;98.20;;;;;;5074707;28;20079;-45
2022/07/07 12:16:23;;;;;;;19.17;2.78;;;18.80;98.10;;;;;;5073451;28;20070;-43
2022/07/07 12:18:49;;;;;;;12.52;2.40;;;19.60;96.30;;;;;;5073623;28;20048;-45
2022/07/07 12:21:22;;;;;;;19.27;2.95;;;17.30;96.00;;;;;;5073390;28;20485;-46
2022/07/07 12:23:52;;;;;;;18.08;2.75;;;18.30;95.90;;;;;;5074432;28;20520;-42
2022/07/07 12:26:20;;;;;;;14.68;3.25;;;17.00;95.50;;;;;;5073813;28;20147;-46
2022/07/07 12:28:47;;;;;;;15.10;2.85;;;16.90;94.40;;;;;;5072418;28;20513;-46
2022/07/07 12:31:20;;;;;;;16.02;2.40;;;16.90;90.50;;;;;;5073627;28;20036;-43
2022/07/07 12:33:47;;;;;;;15.77;2.33;;;18.10;87.40;;;;;;5073462;28;20243;-46
2022/07/07 12:36:24;;;;;;;11.98;2.30;;;18.80;91.40;;;;;;5074681;28;20072;-46
2022/07/07 12:38:58;;;;;;;14.38;2.85;;;17.60;84.10;;;;;;5072354;28;20126;-47
2022/07/07 12:41:26;;;;;;;8.27;1.50;;;17.60;86.00;;;;;;5073856;28;20340;-45
2022/07/07 12:43:54;;;;;;;12.13;2.15;;;19.10;70.70;;;;;;5073335;28;20046;-47
2022/07/07 12:46:31;;;;;;;13.45;2.70;;;17.80;37.80;;;;;;5074377;28;20055;-48
2022/07/07 12:48:59;;;;;;;13.23;2.75;;;18.20;20.70;;;;;;5073115;28;20524;-42